createdAt,value
2023-02-27T00:02:29.029Z,98011.00
2023-02-27T00:04:57.962Z,97998.00
2023-02-27T00:07:28.660Z,97997.00
2023-02-27T00:09:56.805Z,98000.00
2023-02-27T00:12:24.976Z,97998.00
2023-02-27T00:14:53.114Z,97996.00
2023-02-27T00:17:21.259Z,97986.00
2023-02-27T00:19:50.750Z,97992.00
2023-02-27T00:22:18.903Z,97996.00
2023-02-27T00:24:47.044Z,97998.00
2023-02-27T00:27:15.137Z,97999.00
2023-02-27T00:29:43.296Z,98005.00
2023-02-27T00:32:11.507Z,97999.00
2023-02-27T00:34:39.690Z,97994.00
2023-02-27T00:37:09.243Z,97992.00
2023-02-27T00:39:37.384Z,97992.00
2023-02-27T00:42:05.593Z,98010.00
2023-02-27T00:44:33.722Z,98004.00
2023-02-27T00:47:02.047Z,98009.00
2023-02-27T00:49:30.215Z,97994.00
2023-02-27T00:51:58.432Z,97988.00
2023-02-27T00:54:28.046Z,97998.00
2023-02-27T00:56:56.207Z,98010.00
2023-02-27T00:59:24.364Z,97988.00
2023-02-27T01:01:54.186Z,97989.00
2023-02-27T01:04:22.512Z,97992.00
2023-02-27T01:06:50.698Z,97996.00
2023-02-27T01:09:18.846Z,97992.00
2023-02-27T01:11:48.562Z,98006.00
2023-02-27T01:14:16.694Z,97996.00
2023-02-27T01:16:46.921Z,97986.00
2023-02-27T01:19:16.730Z,97989.00
2023-02-27T01:21:45.256Z,97984.00
2023-02-27T01:24:13.808Z,97982.00
2023-02-27T01:26:42.388Z,97992.00
2023-02-27T01:29:12.254Z,97994.00
2023-02-27T01:31:40.503Z,98001.00
2023-02-27T01:34:08.873Z,97987.00
2023-02-27T01:36:37.273Z,97993.00
2023-02-27T01:39:05.444Z,97996.00
2023-02-27T01:41:34.352Z,97999.00
2023-02-27T01:44:06.562Z,98006.00
2023-02-27T01:46:37.084Z,98002.00
2023-02-27T01:49:12.888Z,97998.00
2023-02-27T01:51:47.507Z,98001.00
2023-02-27T01:54:21.401Z,97993.00
2023-02-27T01:56:51.590Z,97988.00
2023-02-27T01:59:20.781Z,97999.00
2023-02-27T02:01:54.006Z,97999.00
2023-02-27T02:04:28.386Z,98000.00
2023-02-27T02:07:05.995Z,98000.00
2023-02-27T02:09:40.776Z,97994.00
2023-02-27T02:12:13.597Z,97992.00
2023-02-27T02:14:44.352Z,97997.00
2023-02-27T02:17:23.741Z,97999.00
2023-02-27T02:20:42.178Z,98011.00
2023-02-27T02:23:48.920Z,98007.00
2023-02-27T02:26:46.784Z,98021.00
2023-02-27T02:30:08.015Z,98017.00
2023-02-27T02:33:22.925Z,98027.00
2023-02-27T02:36:32.025Z,98033.00
2023-02-27T02:39:30.876Z,98026.00
2023-02-27T02:42:09.242Z,98024.00
2023-02-27T02:44:49.333Z,98029.00
2023-02-27T02:47:31.818Z,98023.00
2023-02-27T02:50:12.387Z,98036.00
2023-02-27T02:52:56.130Z,98033.00
2023-02-27T02:55:35.491Z,98034.00
2023-02-27T02:58:11.172Z,98036.00
2023-02-27T03:00:46.988Z,98028.00
2023-02-27T03:03:27.720Z,98036.00
2023-02-27T03:06:04.856Z,98033.00
2023-02-27T03:08:39.065Z,98034.00
2023-02-27T03:11:09.241Z,98043.00
2023-02-27T03:13:44.603Z,98038.00
2023-02-27T03:16:19.354Z,98037.00
2023-02-27T03:18:55.677Z,98044.00
2023-02-27T03:21:38.046Z,98040.00
2023-02-27T03:24:13.991Z,98045.00
2023-02-27T03:26:48.617Z,98051.00
2023-02-27T03:29:27.405Z,98046.00
2023-02-27T03:32:03.160Z,98041.00
2023-02-27T03:34:36.060Z,98055.00
2023-02-27T03:37:25.803Z,98061.00
2023-02-27T03:40:06.432Z,98055.00
2023-02-27T03:42:41.629Z,98055.00
2023-02-27T03:45:26.662Z,98044.00
2023-02-27T03:47:55.249Z,98053.00
2023-02-27T03:50:23.978Z,98062.00
2023-02-27T03:52:52.968Z,98070.00
2023-02-27T03:55:26.222Z,98057.00
2023-02-27T03:57:56.494Z,98061.00
2023-02-27T04:00:27.484Z,98058.00
2023-02-27T04:03:01.274Z,98060.00
2023-02-27T04:05:31.499Z,98069.00
2023-02-27T04:08:40.492Z,98069.00
2023-02-27T04:11:34.661Z,98064.00
2023-02-27T04:14:25.459Z,98080.00
2023-02-27T04:17:23.924Z,98077.00
2023-02-27T04:20:27.389Z,98060.00
2023-02-27T04:23:03.693Z,98065.00
2023-02-27T04:25:55.482Z,98060.00
2023-02-27T04:28:32.677Z,98070.00
2023-02-27T04:31:13.668Z,98069.00
2023-02-27T04:33:50.092Z,98059.00
2023-02-27T04:36:29.002Z,98062.00
2023-02-27T04:39:09.466Z,98065.00
2023-02-27T04:41:45.884Z,98081.00
2023-02-27T04:44:16.576Z,98065.00
2023-02-27T04:46:48.692Z,98072.00
2023-02-27T04:49:25.975Z,98065.00
2023-02-27T04:52:01.863Z,98074.00
2023-02-27T04:54:36.261Z,98071.00
2023-02-27T04:57:10.489Z,98067.00
2023-02-27T04:59:46.259Z,98066.00
2023-02-27T05:02:24.891Z,98072.00
2023-02-27T05:04:58.683Z,98078.00
2023-02-27T05:07:33.908Z,98078.00
2023-02-27T05:10:08.260Z,98080.00
2023-02-27T05:12:45.333Z,98075.00
2023-02-27T05:15:22.004Z,98074.00
2023-02-27T05:18:00.521Z,98065.00
2023-02-27T05:20:53.854Z,98075.00
2023-02-27T05:23:35.429Z,98071.00
2023-02-27T05:26:15.406Z,98073.00
2023-02-27T05:28:55.271Z,98076.00
2023-02-27T05:31:35.291Z,98078.00
2023-02-27T05:34:13.333Z,98087.00
2023-02-27T05:36:48.815Z,98096.00
2023-02-27T05:39:21.384Z,98081.00
2023-02-27T05:41:55.340Z,98095.00
2023-02-27T05:44:28.960Z,98100.00
2023-02-27T05:47:01.449Z,98078.00
2023-02-27T05:49:36.278Z,98098.00
2023-02-27T05:52:10.632Z,98091.00
2023-02-27T05:54:48.451Z,98103.00
2023-02-27T05:57:24.798Z,98099.00
2023-02-27T06:00:03.980Z,98096.00
2023-02-27T06:02:40.349Z,98095.00
2023-02-27T06:05:14.546Z,98099.00
2023-02-27T06:07:43.055Z,98101.00
2023-02-27T06:10:15.700Z,98103.00
2023-02-27T06:12:43.952Z,98122.00
2023-02-27T06:15:13.148Z,98129.00
2023-02-27T06:17:41.598Z,98117.00
2023-02-27T06:20:13.357Z,98125.00
2023-02-27T06:22:41.952Z,98130.00
2023-02-27T06:25:11.358Z,98137.00
2023-02-27T06:27:39.684Z,98138.00
2023-02-27T06:30:09.741Z,98138.00
2023-02-27T06:32:38.041Z,98142.00
2023-02-27T06:35:07.612Z,98137.00
2023-02-27T06:37:37.179Z,98139.00
2023-02-27T06:40:11.445Z,98153.00
2023-02-27T06:42:39.736Z,98160.00
2023-02-27T06:45:10.120Z,98134.00
2023-02-27T06:47:38.836Z,98140.00
2023-02-27T06:50:08.509Z,98146.00
2023-02-27T06:52:38.853Z,98154.00
2023-02-27T06:55:09.375Z,98137.00
2023-02-27T06:57:37.562Z,98150.00
2023-02-27T07:00:08.239Z,98159.00
2023-02-27T07:02:36.401Z,98157.00
2023-02-27T07:05:07.888Z,98154.00
2023-02-27T07:07:38.948Z,98146.00
2023-02-27T07:10:12.237Z,98159.00
2023-02-27T07:12:41.666Z,98152.00
2023-02-27T07:15:11.328Z,98154.00
2023-02-27T07:17:39.511Z,98144.00
2023-02-27T07:20:11.542Z,98145.00
2023-02-27T07:22:42.201Z,98150.00
2023-02-27T07:25:11.155Z,98153.00
2023-02-27T07:27:39.510Z,98151.00
2023-02-27T07:30:09.665Z,98146.00
2023-02-27T07:32:37.803Z,98155.00
2023-02-27T07:35:07.196Z,98154.00
2023-02-27T07:37:35.458Z,98153.00
2023-02-27T07:40:07.550Z,98168.00
2023-02-27T07:42:36.218Z,98146.00
2023-02-27T07:45:04.924Z,98146.00
2023-02-27T07:47:33.118Z,98146.00
2023-02-27T07:50:01.225Z,98154.00
2023-02-27T07:54:58.471Z,98149.00
2023-02-27T07:57:28.017Z,98164.00
2023-02-27T07:59:56.172Z,98157.00
2023-02-27T08:02:24.375Z,98151.00
2023-02-27T08:04:52.679Z,98151.00
2023-02-27T08:07:20.798Z,98167.00
2023-02-27T08:09:48.991Z,98179.00
2023-02-27T08:12:17.123Z,98177.00
2023-02-27T08:14:46.669Z,98166.00
2023-02-27T08:17:15.032Z,98157.00
2023-02-27T08:19:43.284Z,98156.00
2023-02-27T08:22:12.313Z,98169.00
2023-02-27T08:24:41.078Z,98159.00
2023-02-27T08:27:09.886Z,98175.00
2023-02-27T08:29:38.036Z,98171.00
2023-02-27T08:32:07.729Z,98166.00
2023-02-27T08:34:35.938Z,98175.00
2023-02-27T08:37:04.486Z,98160.00
2023-02-27T08:39:32.611Z,98169.00
2023-02-27T08:42:00.705Z,98178.00
2023-02-27T08:44:28.832Z,98178.00
2023-02-27T08:46:56.984Z,98174.00
2023-02-27T08:49:26.587Z,98184.00
2023-02-27T08:51:54.964Z,98188.00
2023-02-27T08:54:23.122Z,98170.00
2023-02-27T08:56:51.391Z,98172.00
2023-02-27T08:59:19.579Z,98187.00
2023-02-27T09:01:47.810Z,98188.00
2023-02-27T09:04:16.145Z,98199.00
2023-02-27T09:06:45.730Z,98176.00
2023-02-27T09:09:13.937Z,98189.00
2023-02-27T09:11:42.491Z,98206.00
2023-02-27T09:14:10.720Z,98203.00
2023-02-27T09:16:39.081Z,98189.00
2023-02-27T09:19:07.372Z,98189.00
2023-02-27T09:21:37.300Z,98187.00
2023-02-27T09:24:19.232Z,98189.00
2023-02-27T09:26:48.658Z,98191.00
2023-02-27T09:29:17.237Z,98190.00
2023-02-27T09:31:45.699Z,98197.00
2023-02-27T09:34:16.625Z,98203.00
2023-02-27T09:36:44.820Z,98217.00
2023-02-27T09:39:14.303Z,98203.00
2023-02-27T09:41:54.266Z,98213.00
2023-02-27T09:44:46.286Z,98207.00
2023-02-27T09:47:24.198Z,98213.00
2023-02-27T09:50:08.107Z,98205.00
2023-02-27T09:52:38.524Z,98211.00
2023-02-27T09:55:23.574Z,98227.00
2023-02-27T09:58:04.344Z,98220.00
2023-02-27T10:00:49.092Z,98234.00
2023-02-27T10:03:43.259Z,98236.00
2023-02-27T10:06:26.558Z,98232.00
2023-02-27T10:09:18.560Z,98229.00
2023-02-27T10:12:07.337Z,98238.00
2023-02-27T10:14:44.361Z,98234.00
2023-02-27T10:17:23.487Z,98242.00
2023-02-27T10:19:54.400Z,98237.00
2023-02-27T10:22:31.560Z,98241.00
2023-02-27T10:25:06.499Z,98227.00
2023-02-27T10:27:40.154Z,98226.00
2023-02-27T10:30:29.211Z,98228.00
2023-02-27T10:33:10.416Z,98247.00
2023-02-27T10:35:42.235Z,98232.00
2023-02-27T10:38:17.989Z,98229.00
2023-02-27T10:40:47.957Z,98237.00
2023-02-27T10:43:19.433Z,98242.00
2023-02-27T10:45:47.784Z,98243.00
2023-02-27T10:48:17.000Z,98240.00
2023-02-27T10:50:50.822Z,98233.00
2023-02-27T10:53:23.598Z,98241.00
2023-02-27T10:56:02.262Z,98247.00
2023-02-27T10:58:35.645Z,98233.00
2023-02-27T11:01:07.328Z,98251.00
2023-02-27T11:03:41.354Z,98246.00
2023-02-27T11:06:20.746Z,98244.00
2023-02-27T11:09:19.288Z,98244.00
2023-02-27T11:11:47.653Z,98238.00
2023-02-27T11:14:31.607Z,98239.00
2023-02-27T11:17:02.150Z,98223.00
2023-02-27T11:19:37.140Z,98247.00
2023-02-27T11:22:15.230Z,98244.00
2023-02-27T11:24:44.261Z,98239.00
2023-02-27T11:27:26.385Z,98236.00
2023-02-27T11:30:02.732Z,98235.00
2023-02-27T11:32:43.038Z,98231.00
2023-02-27T11:35:29.015Z,98238.00
2023-02-27T11:38:01.100Z,98225.00
2023-02-27T11:40:33.619Z,98228.00
2023-02-27T11:43:08.212Z,98233.00
2023-02-27T11:46:16.232Z,98223.00
2023-02-27T11:48:36.231Z,98216.00
2023-02-27T11:51:36.812Z,98218.00
2023-02-27T11:54:19.218Z,98220.00
2023-02-27T11:56:54.219Z,98228.00
2023-02-27T11:59:38.085Z,98218.00
2023-02-27T12:02:21.626Z,98217.00
2023-02-27T12:04:56.419Z,98208.00
2023-02-27T12:07:30.369Z,98215.00
2023-02-27T12:10:07.016Z,98210.00
2023-02-27T12:12:46.306Z,98207.00
2023-02-27T12:15:28.671Z,98223.00
2023-02-27T12:18:13.990Z,98213.00
2023-02-27T12:30:33.073Z,98209.00
2023-02-27T12:33:14.283Z,98177.00
2023-02-27T12:35:50.836Z,98189.00
2023-02-27T12:38:21.803Z,98187.00
2023-02-27T12:41:16.505Z,98182.00
2023-02-27T12:43:57.079Z,98186.00
2023-02-27T12:46:39.683Z,98190.00
2023-02-27T12:50:03.938Z,98188.00
2023-02-27T12:52:49.710Z,98189.00
2023-02-27T12:55:24.639Z,98179.00
2023-02-27T12:58:26.807Z,98206.00
2023-02-27T13:01:01.266Z,98180.00
2023-02-27T13:03:41.367Z,98195.00
2023-02-27T13:06:21.344Z,98188.00
2023-02-27T13:09:21.103Z,98195.00
2023-02-27T13:12:01.937Z,98190.00
2023-02-27T13:14:48.558Z,98180.00
2023-02-27T13:17:26.896Z,98187.00
2023-02-27T13:20:05.867Z,98188.00
2023-02-27T13:22:45.025Z,98176.00
2023-02-27T13:25:16.691Z,98177.00
2023-02-27T13:27:52.087Z,98182.00
2023-02-27T13:30:28.412Z,98177.00
2023-02-27T13:33:13.637Z,98182.00
2023-02-27T13:35:53.119Z,98182.00
2023-02-27T13:38:46.430Z,98169.00
2023-02-27T13:41:40.494Z,98187.00
2023-02-27T13:44:49.240Z,98166.00
2023-02-27T13:47:42.033Z,98178.00
2023-02-27T13:50:53.786Z,98159.00
2023-02-27T13:53:24.433Z,98171.00
2023-02-27T13:56:20.416Z,98175.00
2023-02-27T13:58:49.636Z,98189.00
2023-02-27T14:01:23.780Z,98171.00
2023-02-27T14:03:59.401Z,98187.00
2023-02-27T14:06:29.579Z,98181.00
2023-02-27T14:09:12.867Z,98184.00
2023-02-27T14:11:56.292Z,98172.00
2023-02-27T14:14:45.805Z,98170.00
2023-02-27T14:17:35.788Z,98167.00
2023-02-27T14:20:11.549Z,98175.00
2023-02-27T14:22:48.275Z,98155.00
2023-02-27T14:25:27.177Z,98168.00
2023-02-27T14:27:58.981Z,98167.00
2023-02-27T14:30:35.592Z,98177.00
2023-02-27T14:33:39.061Z,98169.00
2023-02-27T14:36:17.161Z,98170.00
2023-02-27T14:38:45.455Z,98157.00
2023-02-27T14:41:32.356Z,98167.00
2023-02-27T14:44:01.185Z,98186.00
2023-02-27T14:46:32.615Z,98187.00
2023-02-27T14:49:04.588Z,98180.00
2023-02-27T14:51:38.036Z,98190.00
2023-02-27T14:54:15.435Z,98191.00
2023-02-27T14:56:55.518Z,98182.00
2023-02-27T14:59:26.209Z,98187.00
2023-02-27T15:01:57.051Z,98185.00
2023-02-27T15:04:30.788Z,98186.00
2023-02-27T15:07:02.055Z,98196.00
2023-02-27T15:09:40.491Z,98185.00
2023-02-27T15:12:10.358Z,98188.00
2023-02-27T15:14:40.784Z,98188.00
2023-02-27T15:17:18.293Z,98196.00
2023-02-27T15:19:51.952Z,98207.00
2023-02-27T15:22:37.919Z,98218.00
2023-02-27T15:25:08.393Z,98216.00
2023-02-27T15:27:38.492Z,98206.00
2023-02-27T15:30:19.917Z,98208.00
2023-02-27T15:32:48.261Z,98209.00
2023-02-27T15:35:21.213Z,98209.00
2023-02-27T15:37:55.822Z,98197.00
2023-02-27T15:40:28.226Z,98213.00
2023-02-27T15:42:58.279Z,98216.00
2023-02-27T15:45:31.653Z,98206.00
2023-02-27T15:48:00.535Z,98200.00
2023-02-27T15:50:34.006Z,98198.00
2023-02-27T15:53:13.420Z,98209.00
2023-02-27T15:55:46.058Z,98219.00
2023-02-27T15:58:25.303Z,98215.00
2023-02-27T16:01:00.990Z,98216.00
2023-02-27T16:03:36.624Z,98209.00
2023-02-27T16:06:13.044Z,98228.00
2023-02-27T16:08:49.219Z,98221.00
2023-02-27T16:11:21.921Z,98235.00
2023-02-27T16:13:50.732Z,98237.00
2023-02-27T16:16:35.087Z,98246.00
2023-02-27T16:19:16.852Z,98239.00
2023-02-27T16:22:07.670Z,98248.00
2023-02-27T16:24:37.278Z,98233.00
2023-02-27T16:27:06.379Z,98253.00
2023-02-27T16:29:40.656Z,98247.00
2023-02-27T16:32:24.946Z,98252.00
2023-02-27T16:35:02.277Z,98255.00
2023-02-27T16:37:37.968Z,98257.00
2023-02-27T16:40:15.631Z,98249.00
2023-02-27T16:42:45.218Z,98263.00
2023-02-27T16:45:18.350Z,98261.00
2023-02-27T16:47:50.431Z,98265.00
2023-02-27T16:50:24.771Z,98262.00
2023-02-27T16:52:53.013Z,98278.00
2023-02-27T16:55:22.944Z,98275.00
2023-02-27T16:57:51.324Z,98264.00
2023-02-27T17:00:22.512Z,98266.00
2023-02-27T17:02:52.648Z,98290.00
2023-02-27T17:05:21.096Z,98283.00
2023-02-27T17:07:49.470Z,98282.00
2023-02-27T17:10:20.005Z,98270.00
2023-02-27T17:12:49.743Z,98287.00
2023-02-27T17:15:18.819Z,98281.00
2023-02-27T17:17:47.521Z,98279.00
2023-02-27T17:20:16.008Z,98286.00
2023-02-27T17:22:46.329Z,98295.00
2023-02-27T17:25:15.716Z,98278.00
2023-02-27T17:27:44.970Z,98299.00
2023-02-27T17:30:16.127Z,98305.00
2023-02-27T17:32:44.437Z,98305.00
2023-02-27T17:35:12.958Z,98307.00
2023-02-27T17:37:41.260Z,98308.00
2023-02-27T17:40:12.279Z,98313.00
2023-02-27T17:42:40.659Z,98315.00
2023-02-27T17:45:11.456Z,98316.00
2023-02-27T17:47:43.734Z,98321.00
2023-02-27T17:50:13.144Z,98326.00
2023-02-27T17:52:41.765Z,98332.00
2023-02-27T17:55:11.858Z,98334.00
2023-02-27T17:57:41.063Z,98326.00
2023-02-27T18:00:15.415Z,98320.00
2023-02-27T18:02:47.946Z,98321.00
2023-02-27T18:05:16.717Z,98329.00
2023-02-27T18:07:44.969Z,98330.00
2023-02-27T18:10:15.786Z,98335.00
2023-02-27T18:12:44.858Z,98324.00
2023-02-27T18:15:13.457Z,98340.00
2023-02-27T18:17:45.540Z,98335.00
2023-02-27T18:20:14.263Z,98325.00
2023-02-27T18:22:42.431Z,98332.00
2023-02-27T18:25:10.945Z,98326.00
2023-02-27T18:27:39.180Z,98350.00
2023-02-27T18:30:08.961Z,98344.00
2023-02-27T18:32:37.208Z,98340.00
2023-02-27T18:35:07.650Z,98350.00
2023-02-27T18:37:35.946Z,98345.00
2023-02-27T18:40:05.901Z,98325.00
2023-02-27T18:42:34.481Z,98343.00
2023-02-27T18:45:03.614Z,98346.00
2023-02-27T18:47:32.132Z,98334.00
2023-02-27T18:50:00.603Z,98339.00
2023-02-27T18:52:30.872Z,98353.00
2023-02-27T18:55:00.015Z,98342.00
2023-02-27T18:57:28.165Z,98356.00
2023-02-27T18:59:56.518Z,98357.00
2023-02-27T19:02:24.886Z,98354.00
2023-02-27T19:04:53.316Z,98352.00
2023-02-27T19:07:23.326Z,98355.00
2023-02-27T19:09:53.045Z,98358.00
2023-02-27T19:12:21.336Z,98338.00
2023-02-27T19:14:49.758Z,98346.00
2023-02-27T19:17:18.033Z,98342.00
2023-02-27T19:19:46.288Z,98355.00
2023-02-27T19:22:14.552Z,98348.00
2023-02-27T19:24:42.788Z,98353.00
2023-02-27T19:27:12.473Z,98360.00
2023-02-27T19:29:40.695Z,98359.00
2023-02-27T19:32:09.156Z,98355.00
2023-02-27T19:34:37.441Z,98343.00
2023-02-27T19:37:05.700Z,98359.00
2023-02-27T19:39:34.316Z,98350.00
2023-02-27T19:42:02.597Z,98356.00
2023-02-27T19:44:32.240Z,98351.00
2023-02-27T19:47:00.621Z,98365.00
2023-02-27T19:49:31.536Z,98362.00
2023-02-27T19:51:59.948Z,98362.00
2023-02-27T19:54:28.249Z,98358.00
2023-02-27T19:56:56.611Z,98363.00
2023-02-27T19:59:24.942Z,98376.00
2023-02-27T20:01:54.941Z,98372.00
2023-02-27T20:04:23.408Z,98373.00
2023-02-27T20:06:53.691Z,98372.00
2023-02-27T20:09:23.275Z,98360.00
2023-02-27T20:11:56.869Z,98361.00
2023-02-27T20:14:25.789Z,98359.00
2023-02-27T20:16:59.111Z,98363.00
2023-02-27T20:19:27.500Z,98370.00
2023-02-27T20:21:56.524Z,98358.00
2023-02-27T20:24:25.331Z,98362.00
2023-02-27T20:26:54.210Z,98353.00
2023-02-27T20:29:26.306Z,98364.00
2023-02-27T20:31:57.272Z,98362.00
2023-02-27T20:34:27.557Z,98364.00
2023-02-27T20:36:57.617Z,98358.00
2023-02-27T20:39:27.971Z,98363.00
2023-02-27T20:41:58.409Z,98369.00
2023-02-27T20:44:26.845Z,98361.00
2023-02-27T20:46:55.253Z,98364.00
2023-02-27T20:49:23.756Z,98348.00
2023-02-27T20:51:55.897Z,98352.00
2023-02-27T20:54:24.226Z,98356.00
2023-02-27T20:56:54.353Z,98371.00
2023-02-27T20:59:25.222Z,98359.00
2023-02-27T21:01:55.062Z,98349.00
2023-02-27T21:04:26.287Z,98353.00
2023-02-27T21:06:58.270Z,98371.00
2023-02-27T21:09:26.562Z,98362.00
2023-02-27T21:11:55.084Z,98361.00
2023-02-27T21:14:23.848Z,98345.00
2023-02-27T21:16:52.068Z,98362.00
2023-02-27T21:19:20.823Z,98349.00
2023-02-27T21:21:49.215Z,98351.00
2023-02-27T21:24:20.558Z,98344.00
2023-02-27T21:26:49.728Z,98349.00
2023-02-27T21:29:21.332Z,98353.00
2023-02-27T21:31:51.887Z,98346.00
2023-02-27T21:34:23.937Z,98353.00
2023-02-27T21:36:53.059Z,98347.00
2023-02-27T21:39:25.957Z,98341.00
2023-02-27T21:41:54.793Z,98352.00
2023-02-27T21:44:25.323Z,98346.00
2023-02-27T21:46:54.611Z,98343.00
2023-02-27T21:49:26.481Z,98339.00
2023-02-27T21:51:54.762Z,98340.00
2023-02-27T21:54:24.616Z,98337.00
2023-02-27T21:56:53.037Z,98331.00
2023-02-27T21:59:21.876Z,98324.00
2023-02-27T22:01:50.420Z,98327.00
2023-02-27T22:04:21.281Z,98345.00
2023-02-27T22:06:51.293Z,98320.00
2023-02-27T22:09:20.140Z,98327.00
2023-02-27T22:11:50.346Z,98334.00
2023-02-27T22:14:18.763Z,98325.00
2023-02-27T22:16:47.407Z,98317.00
2023-02-27T22:19:21.888Z,98322.00
2023-02-27T22:21:50.346Z,98319.00
2023-02-27T22:24:18.681Z,98306.00
2023-02-27T22:26:47.739Z,98314.00
2023-02-27T22:29:17.552Z,98310.00
2023-02-27T22:31:46.042Z,98313.00
2023-02-27T22:34:18.633Z,98318.00
2023-02-27T22:36:52.198Z,98320.00
2023-02-27T22:39:21.519Z,98318.00
2023-02-27T22:41:50.033Z,98315.00
2023-02-27T22:44:19.738Z,98302.00
2023-02-27T22:46:50.651Z,98314.00
2023-02-27T22:49:21.892Z,98321.00
2023-02-27T22:51:51.935Z,98303.00
2023-02-27T22:54:22.877Z,98314.00
2023-02-27T22:56:55.274Z,98311.00
2023-02-27T22:59:27.415Z,98311.00
2023-02-27T23:01:55.664Z,98323.00
2023-02-27T23:04:23.916Z,98305.00
2023-02-27T23:06:53.027Z,98310.00
2023-02-27T23:09:25.380Z,98314.00
2023-02-27T23:11:54.335Z,98304.00
2023-02-27T23:14:23.122Z,98316.00
2023-02-27T23:16:52.646Z,98300.00
2023-02-27T23:19:22.984Z,98316.00
2023-02-27T23:21:51.151Z,98309.00
2023-02-27T23:24:20.403Z,98316.00
2023-02-27T23:26:51.567Z,98298.00
2023-02-27T23:29:20.451Z,98297.00
2023-02-27T23:31:49.003Z,98302.00
2023-02-27T23:34:18.630Z,98310.00
2023-02-27T23:36:46.879Z,98305.00
2023-02-27T23:39:15.058Z,98319.00
2023-02-27T23:41:43.239Z,98315.00
2023-02-27T23:44:29.064Z,98303.00
2023-02-27T23:46:57.712Z,98306.00
2023-02-27T23:49:27.265Z,98292.00
2023-02-27T23:51:55.472Z,98302.00
2023-02-27T23:54:23.668Z,98306.00
2023-02-27T23:56:51.988Z,98310.00
2023-02-27T23:59:20.162Z,98295.00
